createdAt,value
2022-12-09T00:02:06.335Z,90.10
2022-12-09T00:12:10.660Z,90.24
2022-12-09T00:22:13.552Z,90.51
2022-12-09T00:32:17.793Z,90.57
2022-12-09T00:42:20.850Z,90.66
2022-12-09T00:52:25.327Z,90.63
2022-12-09T01:02:28.351Z,91.12
2022-12-09T01:12:34.036Z,91.23
2022-12-09T01:22:37.351Z,91.29
2022-12-09T01:32:41.610Z,91.19
2022-12-09T01:42:44.929Z,91.08
2022-12-09T01:52:50.597Z,91.40
2022-12-09T02:02:57.280Z,91.52
2022-12-09T02:13:10.041Z,91.52
2022-12-09T02:23:19.445Z,91.38
2022-12-09T02:33:35.251Z,91.63
2022-12-09T02:43:48.189Z,91.37
2022-12-09T02:53:58.659Z,90.90
2022-12-09T03:04:04.100Z,90.36
2022-12-09T03:14:11.862Z,89.33
2022-12-09T03:24:20.683Z,89.99
2022-12-09T03:34:26.769Z,90.04
2022-12-09T03:44:38.175Z,89.12
2022-12-09T03:54:44.657Z,89.11
2022-12-09T04:04:48.985Z,88.61
2022-12-09T04:14:52.468Z,88.51
2022-12-09T04:24:56.712Z,88.72
2022-12-09T04:34:59.482Z,88.25
2022-12-09T04:45:03.602Z,88.28
2022-12-09T04:55:07.791Z,88.02
2022-12-09T05:05:13.133Z,88.37
2022-12-09T05:15:16.289Z,88.51
2022-12-09T05:25:20.916Z,88.63
2022-12-09T05:35:24.863Z,88.58
2022-12-09T05:45:29.571Z,88.90
2022-12-09T05:55:32.561Z,89.07
2022-12-09T06:05:37.707Z,89.23
2022-12-09T06:15:40.975Z,89.52
2022-12-09T06:25:46.608Z,89.70
2022-12-09T06:35:49.837Z,89.79
2022-12-09T06:45:54.200Z,90.11
2022-12-09T06:55:57.282Z,90.69
2022-12-09T07:06:01.728Z,90.89
2022-12-09T07:16:05.405Z,90.85
2022-12-09T07:26:10.181Z,90.69
2022-12-09T07:36:19.084Z,90.32
2022-12-09T07:46:27.630Z,90.31
2022-12-09T07:56:30.919Z,90.28
2022-12-09T08:06:35.844Z,90.49
2022-12-09T08:16:39.309Z,91.74
2022-12-09T08:26:43.970Z,91.65
2022-12-09T08:36:47.118Z,91.97
2022-12-09T08:46:52.994Z,92.06
2022-12-09T08:56:56.452Z,92.11
2022-12-09T09:07:01.351Z,92.17
2022-12-09T09:17:04.402Z,92.57
2022-12-09T09:27:08.955Z,91.85
2022-12-09T09:37:12.017Z,91.98
2022-12-09T09:47:28.579Z,91.63
2022-12-09T09:57:41.267Z,91.50
2022-12-09T10:07:51.667Z,91.40
2022-12-09T10:17:59.025Z,90.89
2022-12-09T10:28:21.509Z,91.00
2022-12-09T10:38:26.135Z,91.43
2022-12-09T10:48:33.436Z,92.13
2022-12-09T10:58:37.332Z,93.05
2022-12-09T11:08:42.814Z,93.53
2022-12-09T11:18:49.023Z,93.58
2022-12-09T11:29:04.605Z,94.43
2022-12-09T11:39:28.547Z,94.34
2022-12-09T11:49:36.959Z,94.05
2022-12-09T11:59:58.605Z,94.27
2022-12-09T12:10:04.367Z,93.80
2022-12-09T12:20:12.097Z,94.00
2022-12-09T12:30:20.492Z,93.49
2022-12-09T12:40:37.722Z,92.60
2022-12-09T12:50:53.914Z,93.30
2022-12-09T13:01:03.138Z,93.14
2022-12-09T13:11:11.663Z,92.69
2022-12-09T13:21:15.608Z,92.62
2022-12-09T13:31:26.876Z,92.81
2022-12-09T13:42:11.354Z,92.11
2022-12-09T13:52:43.581Z,91.26
2022-12-09T14:02:56.517Z,91.58
2022-12-09T14:13:18.664Z,91.72
2022-12-09T14:23:21.419Z,91.34
2022-12-09T14:33:31.378Z,91.20
2022-12-09T14:43:50.517Z,91.21
2022-12-09T14:53:57.335Z,90.84
2022-12-09T15:04:01.170Z,89.83
2022-12-09T15:14:23.514Z,91.04
2022-12-09T15:24:48.910Z,90.83
2022-12-09T15:34:55.229Z,90.39
2022-12-09T15:45:07.935Z,91.99
2022-12-09T15:55:16.154Z,91.86
2022-12-09T16:05:23.915Z,92.24
2022-12-09T16:15:44.866Z,92.77
2022-12-09T16:25:49.960Z,92.66
2022-12-09T16:36:02.104Z,92.48
2022-12-09T16:46:39.338Z,91.98
2022-12-09T16:56:43.474Z,91.90
2022-12-09T17:06:46.824Z,92.42
2022-12-09T17:16:50.955Z,91.27
2022-12-09T17:26:53.701Z,91.05
2022-12-09T17:36:58.306Z,91.07
2022-12-09T17:47:01.126Z,91.02
2022-12-09T17:57:05.351Z,91.11
2022-12-09T18:07:08.032Z,90.97
2022-12-09T18:17:12.197Z,91.01
2022-12-09T18:27:14.905Z,91.08
2022-12-09T18:37:19.746Z,91.19
2022-12-09T18:47:22.601Z,91.17
2022-12-09T18:57:30.683Z,91.21
2022-12-09T19:07:33.764Z,91.29
2022-12-09T19:17:39.994Z,91.50
2022-12-09T19:27:44.751Z,91.60
2022-12-09T19:37:48.874Z,91.50
2022-12-09T19:47:51.513Z,91.46
2022-12-09T19:57:55.558Z,91.31
2022-12-09T20:07:58.280Z,91.37
2022-12-09T20:18:02.557Z,91.24
2022-12-09T20:28:06.280Z,90.94
2022-12-09T20:38:10.871Z,91.08
2022-12-09T20:48:13.767Z,91.09
2022-12-09T20:58:17.875Z,90.68
2022-12-09T21:08:20.770Z,90.40
2022-12-09T21:18:25.022Z,90.64
2022-12-09T21:28:29.374Z,90.66
2022-12-09T21:38:33.634Z,90.38
2022-12-09T21:48:36.886Z,90.49
2022-12-09T21:58:41.114Z,90.55
2022-12-09T22:08:44.078Z,90.17
2022-12-09T22:18:48.925Z,90.23
2022-12-09T22:28:52.388Z,90.05
2022-12-09T22:38:56.725Z,90.18
2022-12-09T22:49:03.071Z,90.00
2022-12-09T22:59:07.750Z,89.86
2022-12-09T23:09:14.035Z,89.92
2022-12-09T23:19:18.121Z,89.86
2022-12-09T23:29:21.289Z,89.85
2022-12-09T23:39:25.518Z,90.03
2022-12-09T23:49:28.322Z,90.03
2022-12-09T23:59:32.432Z,90.08
